createdAt,value
2022-07-31T00:08:11.733Z,5.53
2022-07-31T00:13:13.760Z,5.65
2022-07-31T00:18:15.694Z,5.17
2022-07-31T00:23:19.041Z,5.72
2022-07-31T00:28:21.275Z,5.53
2022-07-31T00:33:23.001Z,5.80
2022-07-31T00:38:26.930Z,5.90
2022-07-31T00:43:30.824Z,5.10
2022-07-31T00:48:33.643Z,4.40
2022-07-31T00:53:35.797Z,5.55
2022-07-31T00:58:37.519Z,5.60
2022-07-31T01:03:39.430Z,5.57
2022-07-31T01:08:41.462Z,4.50
2022-07-31T01:13:55.995Z,4.97
2022-07-31T01:18:58.830Z,6.18
2022-07-31T01:24:17.856Z,5.60
2022-07-31T01:29:56.583Z,5.63
2022-07-31T01:35:05.288Z,6.55
2022-07-31T01:40:15.304Z,5.85
2022-07-31T01:45:21.056Z,5.97
2022-07-31T01:50:43.570Z,5.70
2022-07-31T01:56:02.734Z,6.40
2022-07-31T02:01:14.129Z,5.88
2022-07-31T02:06:18.970Z,5.82
2022-07-31T02:11:22.048Z,6.60
2022-07-31T02:16:26.300Z,6.90
2022-07-31T02:21:37.594Z,6.32
2022-07-31T02:26:40.510Z,6.10
2022-07-31T02:31:44.392Z,6.50
2022-07-31T02:36:47.282Z,6.82
2022-07-31T02:46:51.780Z,6.72
2022-07-31T02:56:56.100Z,7.15
2022-07-31T03:01:58.918Z,6.50
2022-07-31T03:07:02.182Z,7.00
2022-07-31T03:12:04.990Z,7.07
2022-07-31T03:22:13.653Z,6.55
2022-07-31T03:27:17.170Z,6.38
2022-07-31T03:32:19.526Z,6.40
2022-07-31T03:37:21.605Z,6.60
2022-07-31T03:42:24.348Z,6.65
2022-07-31T03:47:26.193Z,6.95
2022-07-31T03:52:29.654Z,6.70
2022-07-31T03:57:34.083Z,7.70
2022-07-31T04:02:36.584Z,7.07
2022-07-31T04:08:04.786Z,7.80
2022-07-31T04:13:07.009Z,7.55
2022-07-31T04:18:08.854Z,7.20
2022-07-31T04:23:16.633Z,7.32
2022-07-31T04:28:37.616Z,7.35
2022-07-31T04:33:47.357Z,7.78
2022-07-31T04:38:50.910Z,6.90
2022-07-31T04:43:53.058Z,7.07
2022-07-31T04:48:55.831Z,7.38
2022-07-31T04:54:01.194Z,7.32
2022-07-31T04:59:09.861Z,7.35
2022-07-31T05:04:15.414Z,7.20
2022-07-31T05:14:27.808Z,7.63
2022-07-31T05:19:30.370Z,8.25
2022-07-31T05:24:58.459Z,7.53
2022-07-31T05:30:00.562Z,8.10
2022-07-31T05:35:02.302Z,8.50
2022-07-31T05:40:04.470Z,10.20
2022-07-31T05:45:24.659Z,10.07
2022-07-31T05:50:26.608Z,10.17
2022-07-31T05:55:28.351Z,8.70
2022-07-31T06:00:50.246Z,10.50
2022-07-31T06:05:52.100Z,10.63
2022-07-31T06:10:54.425Z,7.30
2022-07-31T06:15:56.339Z,8.83
2022-07-31T06:20:58.025Z,9.20
2022-07-31T06:26:00.552Z,7.93
2022-07-31T06:31:02.429Z,8.93
2022-07-31T06:36:04.274Z,8.20
2022-07-31T06:41:39.686Z,8.85
2022-07-31T06:47:00.312Z,8.15
2022-07-31T06:52:18.114Z,9.13
2022-07-31T06:57:20.375Z,9.95
2022-07-31T07:02:22.196Z,9.30
2022-07-31T07:07:24.120Z,9.25
2022-07-31T07:12:34.796Z,9.55
2022-07-31T07:17:36.799Z,10.00
2022-07-31T07:22:44.130Z,9.10
2022-07-31T07:27:49.155Z,8.30
2022-07-31T07:32:51.063Z,8.60
2022-07-31T07:37:53.345Z,8.98
2022-07-31T07:42:58.799Z,8.30
2022-07-31T07:48:06.772Z,7.78
2022-07-31T07:53:25.084Z,7.72
2022-07-31T07:58:48.996Z,7.60
2022-07-31T08:04:10.802Z,7.25
2022-07-31T08:09:12.764Z,7.27
2022-07-31T08:14:40.068Z,7.20
2022-07-31T08:20:01.861Z,6.75
2022-07-31T08:25:05.763Z,7.40
2022-07-31T08:30:08.953Z,6.65
2022-07-31T08:35:10.725Z,6.88
2022-07-31T08:40:13.527Z,5.95
2022-07-31T08:45:15.391Z,5.03
2022-07-31T08:50:44.132Z,5.22
2022-07-31T08:55:57.813Z,5.30
2022-07-31T09:01:04.622Z,4.47
2022-07-31T09:06:06.715Z,4.40
2022-07-31T09:11:12.332Z,4.38
2022-07-31T09:16:24.369Z,3.53
2022-07-31T09:21:41.606Z,3.60
2022-07-31T09:26:44.377Z,3.40
2022-07-31T09:31:46.859Z,3.33
2022-07-31T09:37:25.650Z,3.30
2022-07-31T09:42:59.762Z,3.50
2022-07-31T09:48:15.279Z,3.45
2022-07-31T09:53:22.013Z,3.00
2022-07-31T09:58:28.064Z,2.20
2022-07-31T10:03:29.833Z,2.60
2022-07-31T10:08:37.043Z,2.30
2022-07-31T10:14:01.229Z,2.30
2022-07-31T10:19:11.330Z,2.40
2022-07-31T10:24:40.374Z,2.42
2022-07-31T10:29:42.561Z,2.60
2022-07-31T10:34:45.510Z,2.40
2022-07-31T10:40:08.743Z,2.10
2022-07-31T10:45:17.831Z,2.50
2022-07-31T10:50:36.975Z,2.40
2022-07-31T10:55:42.779Z,2.45
2022-07-31T11:01:09.718Z,2.30
2022-07-31T11:06:11.824Z,2.15
2022-07-31T11:11:39.523Z,2.10
2022-07-31T11:17:00.370Z,2.00
2022-07-31T11:22:30.611Z,2.00
2022-07-31T11:27:34.771Z,2.30
2022-07-31T11:32:36.469Z,2.15
2022-07-31T11:37:46.799Z,2.20
2022-07-31T11:43:24.842Z,2.20
2022-07-31T11:48:25.439Z,2.10
2022-07-31T11:53:29.114Z,1.88
2022-07-31T11:58:30.853Z,2.08
2022-07-31T12:03:36.682Z,2.08
2022-07-31T12:08:39.984Z,2.00
2022-07-31T12:13:46.610Z,2.38
2022-07-31T12:18:59.276Z,2.10
2022-07-31T12:24:01.487Z,2.13
2022-07-31T12:29:11.415Z,2.08
2022-07-31T12:34:25.065Z,1.63
2022-07-31T12:39:47.544Z,2.00
2022-07-31T12:44:50.280Z,1.65
2022-07-31T12:49:52.904Z,1.80
2022-07-31T12:54:55.273Z,2.00
2022-07-31T12:59:57.109Z,1.90
2022-07-31T13:04:58.857Z,2.03
2022-07-31T13:10:19.068Z,2.20
2022-07-31T13:15:29.600Z,1.67
2022-07-31T13:20:32.786Z,1.75
2022-07-31T13:25:34.541Z,1.60
2022-07-31T13:30:36.317Z,1.75
2022-07-31T13:35:38.051Z,1.50
2022-07-31T13:40:58.653Z,1.35
2022-07-31T13:46:00.737Z,1.48
2022-07-31T13:51:03.077Z,1.50
2022-07-31T14:01:06.796Z,1.60
2022-07-31T14:06:08.801Z,1.60
2022-07-31T14:11:22.404Z,1.80
2022-07-31T14:21:26.085Z,1.60
2022-07-31T14:26:28.320Z,1.70
2022-07-31T14:31:30.108Z,1.60
2022-07-31T14:36:31.787Z,1.50
2022-07-31T14:41:34.322Z,1.63
2022-07-31T14:46:36.182Z,1.70
2022-07-31T14:51:37.922Z,1.80
2022-07-31T14:57:00.237Z,1.63
2022-07-31T15:02:01.571Z,1.90
2022-07-31T15:07:32.473Z,1.52
2022-07-31T15:17:27.381Z,1.67
2022-07-31T15:27:30.763Z,1.77
2022-07-31T15:32:32.507Z,1.50
2022-07-31T15:37:39.381Z,1.63
2022-07-31T15:42:42.645Z,1.50
2022-07-31T15:47:45.818Z,1.70
2022-07-31T15:52:48.636Z,1.63
2022-07-31T15:57:50.450Z,1.52
2022-07-31T16:02:52.487Z,1.40
2022-07-31T16:08:32.410Z,1.30
2022-07-31T16:13:16.146Z,1.38
2022-07-31T16:18:18.764Z,1.40
2022-07-31T16:23:20.570Z,1.50
2022-07-31T16:28:22.313Z,1.63
2022-07-31T16:33:24.094Z,1.33
2022-07-31T16:38:26.076Z,1.50
2022-07-31T16:43:49.828Z,1.40
2022-07-31T16:48:49.505Z,1.50
2022-07-31T16:54:13.514Z,1.63
2022-07-31T16:59:13.277Z,1.40
2022-07-31T17:04:14.950Z,1.55
2022-07-31T17:09:18.542Z,1.60
2022-07-31T17:14:23.927Z,1.50
2022-07-31T17:19:42.492Z,1.52
2022-07-31T17:24:51.670Z,1.40
2022-07-31T17:29:53.766Z,1.50
2022-07-31T17:34:55.878Z,1.88
2022-07-31T17:39:58.157Z,1.60
2022-07-31T17:45:01.894Z,1.50
2022-07-31T17:50:04.329Z,1.40
2022-07-31T17:55:07.974Z,1.67
2022-07-31T18:00:10.088Z,1.40
2022-07-31T18:10:13.574Z,1.40
2022-07-31T18:15:15.559Z,1.58
2022-07-31T18:20:19.320Z,1.65
2022-07-31T18:25:20.996Z,1.70
2022-07-31T18:30:23.666Z,1.70
2022-07-31T18:35:32.099Z,1.65
2022-07-31T18:40:33.788Z,1.42
2022-07-31T18:45:36.037Z,1.65
2022-07-31T18:50:58.608Z,1.80
2022-07-31T18:56:05.065Z,1.63
2022-07-31T19:01:06.752Z,1.83
2022-07-31T19:06:08.678Z,1.63
2022-07-31T19:11:11.722Z,1.70
2022-07-31T19:16:13.553Z,1.98
2022-07-31T19:21:41.681Z,1.88
2022-07-31T19:26:41.055Z,1.77
2022-07-31T19:31:42.741Z,1.80
2022-07-31T19:36:44.483Z,1.97
2022-07-31T19:42:11.695Z,2.10
2022-07-31T19:47:08.027Z,2.20
2022-07-31T19:52:11.194Z,1.90
2022-07-31T19:57:12.910Z,1.95
2022-07-31T20:02:16.949Z,2.33
2022-07-31T20:07:18.880Z,1.83
2022-07-31T20:12:20.755Z,2.00
2022-07-31T20:17:22.440Z,1.90
2022-07-31T20:22:24.245Z,2.07
2022-07-31T20:27:26.159Z,1.90
2022-07-31T20:32:27.848Z,2.10
2022-07-31T20:37:30.581Z,2.00
2022-07-31T20:42:32.269Z,2.13
2022-07-31T20:47:33.872Z,1.90
2022-07-31T20:52:35.582Z,1.90
2022-07-31T20:57:37.174Z,1.90
2022-07-31T21:02:39.252Z,1.90
2022-07-31T21:07:40.966Z,1.90
2022-07-31T21:12:42.602Z,1.90
2022-07-31T21:17:44.342Z,2.03
2022-07-31T21:22:46.059Z,2.10
2022-07-31T21:27:47.917Z,2.00
2022-07-31T21:32:49.985Z,2.10
2022-07-31T21:37:54.754Z,2.03
2022-07-31T21:42:58.859Z,2.13
2022-07-31T21:48:09.105Z,1.80
2022-07-31T21:53:11.340Z,2.40
2022-07-31T21:58:13.211Z,2.20
2022-07-31T22:03:14.939Z,1.90
2022-07-31T22:08:16.978Z,2.17
2022-07-31T22:13:19.729Z,2.00
2022-07-31T22:18:21.870Z,1.92
2022-07-31T22:23:23.888Z,2.05
2022-07-31T22:28:27.121Z,1.90
2022-07-31T22:33:28.892Z,2.00
2022-07-31T22:38:30.859Z,1.90
2022-07-31T22:44:12.926Z,2.13
2022-07-31T22:48:55.885Z,2.13
2022-07-31T22:53:57.638Z,2.05
2022-07-31T22:58:59.301Z,2.30
2022-07-31T23:04:01.072Z,2.10
2022-07-31T23:09:03.082Z,2.43
2022-07-31T23:14:04.761Z,2.13
2022-07-31T23:19:06.490Z,2.27
2022-07-31T23:24:08.852Z,2.30
2022-07-31T23:29:11.179Z,2.97
2022-07-31T23:34:15.817Z,2.63
2022-07-31T23:39:18.480Z,2.63
2022-07-31T23:44:24.952Z,2.70
2022-07-31T23:49:27.016Z,2.75
2022-07-31T23:54:28.817Z,2.70
2022-07-31T23:59:30.556Z,2.50
